createdAt,value
2023-04-08T00:00:59.761Z,51.82
2023-04-08T00:03:01.194Z,52.12
2023-04-08T00:05:02.918Z,51.94
2023-04-08T00:07:04.245Z,51.96
2023-04-08T00:09:05.561Z,52.46
2023-04-08T00:11:06.907Z,51.92
2023-04-08T00:13:08.203Z,52.35
2023-04-08T00:15:09.509Z,52.04
2023-04-08T00:17:11.229Z,52.21
2023-04-08T00:19:12.572Z,52.43
2023-04-08T00:21:16.454Z,52.51
2023-04-08T00:23:18.119Z,52.65
2023-04-08T00:25:19.520Z,52.88
2023-04-08T00:27:21.040Z,53.24
2023-04-08T00:29:22.343Z,53.15
2023-04-08T00:31:23.785Z,53.30
2023-04-08T00:33:25.892Z,53.25
2023-04-08T00:35:27.297Z,53.50
2023-04-08T00:37:28.623Z,53.67
2023-04-08T00:39:29.977Z,53.46
2023-04-08T00:41:31.305Z,53.40
2023-04-08T00:43:32.608Z,53.68
2023-04-08T00:45:33.942Z,53.77
2023-04-08T00:47:35.299Z,53.80
2023-04-08T00:49:37.183Z,53.76
2023-04-08T00:51:38.620Z,54.10
2023-04-08T00:53:39.933Z,54.09
2023-04-08T00:55:41.303Z,54.05
2023-04-08T00:57:42.612Z,54.02
2023-04-08T00:59:43.922Z,53.80
2023-04-08T01:01:45.543Z,53.99
2023-04-08T01:03:47.095Z,53.75
2023-04-08T01:05:48.474Z,54.39
2023-04-08T01:07:49.834Z,54.02
2023-04-08T01:09:51.155Z,53.79
2023-04-08T01:11:52.703Z,53.80
2023-04-08T01:13:54.007Z,53.23
2023-04-08T01:15:55.375Z,53.05
2023-04-08T01:17:57.447Z,52.86
2023-04-08T01:19:59.502Z,53.28
2023-04-08T01:22:00.814Z,52.83
2023-04-08T01:24:02.259Z,52.77
2023-04-08T01:26:03.594Z,53.12
2023-04-08T01:28:04.899Z,53.15
2023-04-08T01:30:06.218Z,52.90
2023-04-08T01:32:07.556Z,53.56
2023-04-08T01:34:08.891Z,53.05
2023-04-08T01:36:10.577Z,53.11
2023-04-08T01:38:11.884Z,53.52
2023-04-08T01:40:13.180Z,53.73
2023-04-08T01:42:14.473Z,52.99
2023-04-08T01:44:15.803Z,53.16
2023-04-08T01:46:17.147Z,53.36
2023-04-08T01:48:18.477Z,53.51
2023-04-08T01:50:19.821Z,53.77
2023-04-08T01:52:21.140Z,53.90
2023-04-08T01:54:22.442Z,53.95
2023-04-08T01:56:23.750Z,54.01
2023-04-08T01:58:25.138Z,54.50
2023-04-08T02:00:26.518Z,53.98
2023-04-08T02:02:27.948Z,54.26
2023-04-08T02:04:29.586Z,54.34
2023-04-08T02:06:32.286Z,54.64
2023-04-08T02:08:33.582Z,54.76
2023-04-08T02:10:34.904Z,54.75
2023-04-08T02:12:36.267Z,54.89
2023-04-08T02:14:37.554Z,55.29
2023-04-08T02:16:38.951Z,54.67
2023-04-08T02:18:40.328Z,55.30
2023-04-08T02:20:41.620Z,54.79
2023-04-08T02:22:42.962Z,54.55
2023-04-08T02:24:44.616Z,54.89
2023-04-08T02:26:46.265Z,54.75
2023-04-08T02:28:48.360Z,54.51
2023-04-08T02:30:49.916Z,54.52
2023-04-08T02:32:51.339Z,54.28
2023-04-08T02:34:52.639Z,54.47
2023-04-08T02:36:53.941Z,54.04
2023-04-08T02:38:55.299Z,54.03
2023-04-08T02:40:56.826Z,53.96
2023-04-08T02:42:58.170Z,53.79
2023-04-08T02:44:59.462Z,53.85
2023-04-08T02:47:00.821Z,53.98
2023-04-08T02:49:02.155Z,53.73
2023-04-08T02:51:03.583Z,53.50
2023-04-08T02:53:04.964Z,53.83
2023-04-08T02:55:10.086Z,54.13
2023-04-08T02:57:11.414Z,53.70
2023-04-08T02:59:12.704Z,53.78
2023-04-08T03:01:14.108Z,54.07
2023-04-08T03:03:15.557Z,53.90
2023-04-08T03:05:16.996Z,54.06
2023-04-08T03:07:18.319Z,53.97
2023-04-08T03:09:19.708Z,53.81
2023-04-08T03:11:21.578Z,54.00
2023-04-08T03:13:22.918Z,54.46
2023-04-08T03:15:24.344Z,54.36
2023-04-08T03:17:25.677Z,54.06
2023-04-08T03:19:27.005Z,54.67
2023-04-08T03:21:28.375Z,54.53
2023-04-08T03:23:29.663Z,54.47
2023-04-08T03:25:31.793Z,54.90
2023-04-08T03:27:33.189Z,54.48
2023-04-08T03:29:34.480Z,54.80
2023-04-08T03:31:35.852Z,54.42
2023-04-08T03:33:37.210Z,54.79
2023-04-08T03:35:38.874Z,55.04
2023-04-08T03:37:40.489Z,54.99
2023-04-08T03:39:41.795Z,54.98
2023-04-08T03:41:43.088Z,55.31
2023-04-08T03:43:44.433Z,55.16
2023-04-08T03:45:45.882Z,55.20
2023-04-08T03:47:47.234Z,55.10
2023-04-08T03:49:48.611Z,55.32
2023-04-08T03:51:50.129Z,55.25
2023-04-08T03:53:51.419Z,54.70
2023-04-08T03:55:52.978Z,55.05
2023-04-08T03:57:54.280Z,54.47
2023-04-08T03:59:55.567Z,54.28
2023-04-08T04:01:57.134Z,54.21
2023-04-08T04:03:58.600Z,54.07
2023-04-08T04:05:59.997Z,54.54
2023-04-08T04:08:01.291Z,53.82
2023-04-08T04:10:02.686Z,53.91
2023-04-08T04:12:04.027Z,54.26
2023-04-08T04:14:05.417Z,54.05
2023-04-08T04:16:06.758Z,54.21
2023-04-08T04:18:08.259Z,54.33
2023-04-08T04:20:09.665Z,54.16
2023-04-08T04:22:11.014Z,54.05
2023-04-08T04:24:13.532Z,54.54
2023-04-08T04:26:15.360Z,54.21
2023-04-08T04:28:16.692Z,54.33
2023-04-08T04:30:19.504Z,54.14
2023-04-08T04:32:20.935Z,54.27
2023-04-08T04:34:22.243Z,54.28
2023-04-08T04:36:23.659Z,54.69
2023-04-08T04:38:25.006Z,54.31
2023-04-08T04:40:27.028Z,54.87
2023-04-08T04:42:28.397Z,54.52
2023-04-08T04:44:30.083Z,55.11
2023-04-08T04:46:31.511Z,54.72
2023-04-08T04:48:32.860Z,54.65
2023-04-08T04:50:34.152Z,54.79
2023-04-08T04:52:35.475Z,55.17
2023-04-08T04:54:36.766Z,54.98
2023-04-08T04:56:38.070Z,55.40
2023-04-08T04:58:39.413Z,55.81
2023-04-08T05:00:41.138Z,55.44
2023-04-08T05:02:42.554Z,55.66
2023-04-08T05:04:44.015Z,55.97
2023-04-08T05:06:45.394Z,55.80
2023-04-08T05:08:46.692Z,55.77
2023-04-08T05:10:50.266Z,55.84
2023-04-08T05:12:51.643Z,55.44
2023-04-08T05:14:52.941Z,55.20
2023-04-08T05:16:54.244Z,55.40
2023-04-08T05:18:55.567Z,55.77
2023-04-08T05:20:56.887Z,55.07
2023-04-08T05:22:58.181Z,55.05
2023-04-08T05:24:59.479Z,55.17
2023-04-08T05:27:01.239Z,55.08
2023-04-08T05:29:02.556Z,54.79
2023-04-08T05:31:03.994Z,54.22
2023-04-08T05:33:05.453Z,54.37
2023-04-08T05:35:06.779Z,54.24
2023-04-08T05:37:08.083Z,54.61
2023-04-08T05:39:09.412Z,54.60
2023-04-08T05:41:10.810Z,54.59
2023-04-08T05:43:12.151Z,54.58
2023-04-08T05:45:13.441Z,54.53
2023-04-08T05:47:14.958Z,54.15
2023-04-08T05:49:17.410Z,53.86
2023-04-08T05:51:18.815Z,54.04
2023-04-08T05:53:20.155Z,54.38
2023-04-08T05:55:21.446Z,54.17
2023-04-08T05:57:22.737Z,54.44
2023-04-08T05:59:24.059Z,54.57
2023-04-08T06:01:26.294Z,54.74
2023-04-08T06:03:27.798Z,55.39
2023-04-08T06:05:29.499Z,55.11
2023-04-08T06:07:31.091Z,55.19
2023-04-08T06:09:32.388Z,55.40
2023-04-08T06:11:33.897Z,55.43
2023-04-08T06:13:35.272Z,55.39
2023-04-08T06:15:36.588Z,55.67
2023-04-08T06:17:38.210Z,55.87
2023-04-08T06:19:39.669Z,55.70
2023-04-08T06:21:40.980Z,55.53
2023-04-08T06:23:42.292Z,55.79
2023-04-08T06:25:44.045Z,56.15
2023-04-08T06:27:45.350Z,56.14
2023-04-08T06:29:47.210Z,55.98
2023-04-08T06:31:48.623Z,56.26
2023-04-08T06:33:50.015Z,56.25
2023-04-08T06:35:51.789Z,56.20
2023-04-08T06:37:53.308Z,55.81
2023-04-08T06:39:57.736Z,56.17
2023-04-08T06:41:59.377Z,55.94
2023-04-08T06:44:00.869Z,55.36
2023-04-08T06:46:02.275Z,55.30
2023-04-08T06:48:03.697Z,55.54
2023-04-08T06:50:05.036Z,55.23
2023-04-08T06:52:09.227Z,55.19
2023-04-08T06:54:10.544Z,55.03
2023-04-08T06:56:11.835Z,54.75
2023-04-08T06:58:15.915Z,55.16
2023-04-08T07:00:17.337Z,55.21
2023-04-08T07:02:18.683Z,55.19
2023-04-08T07:04:20.212Z,54.74
2023-04-08T07:06:21.591Z,54.91
2023-04-08T07:08:22.969Z,55.40
2023-04-08T07:10:24.424Z,54.90
2023-04-08T07:12:25.739Z,55.09
2023-04-08T07:14:27.084Z,50.25
2023-04-08T07:16:31.321Z,50.49
2023-04-08T07:18:32.970Z,49.96
2023-04-08T07:20:38.294Z,49.15
2023-04-08T07:22:39.647Z,48.59
2023-04-08T07:24:43.397Z,48.54
2023-04-08T07:26:44.687Z,48.48
2023-04-08T07:28:46.134Z,48.46
2023-04-08T07:30:47.514Z,47.94
2023-04-08T07:32:48.936Z,47.88
2023-04-08T07:34:50.551Z,47.76
2023-04-08T07:36:51.885Z,47.41
2023-04-08T07:38:53.185Z,47.52
2023-04-08T07:40:54.483Z,48.02
2023-04-08T07:42:56.028Z,47.72
2023-04-08T07:44:57.344Z,47.87
2023-04-08T07:46:58.669Z,47.70
2023-04-08T07:49:00.018Z,48.00
2023-04-08T07:51:09.852Z,48.41
2023-04-08T07:53:12.527Z,48.10
2023-04-08T07:55:13.868Z,48.19
2023-04-08T07:57:15.289Z,48.57
2023-04-08T07:59:16.862Z,48.36
2023-04-08T08:01:18.981Z,48.55
2023-04-08T08:03:20.626Z,48.67
2023-04-08T08:05:22.105Z,49.08
2023-04-08T08:07:23.427Z,48.88
2023-04-08T08:09:24.722Z,49.10
2023-04-08T08:11:28.027Z,48.68
2023-04-08T08:13:29.378Z,48.41
2023-04-08T08:15:30.682Z,48.25
2023-04-08T08:17:33.730Z,48.39
2023-04-08T08:19:35.397Z,48.59
2023-04-08T08:21:36.744Z,48.75
2023-04-08T08:23:38.056Z,49.06
2023-04-08T08:25:39.427Z,49.17
2023-04-08T08:27:42.288Z,48.95
2023-04-08T08:29:43.576Z,49.16
2023-04-08T08:31:45.091Z,49.11
2023-04-08T08:33:47.286Z,49.64
2023-04-08T08:35:48.703Z,49.03
2023-04-08T08:37:50.064Z,48.95
2023-04-08T08:39:51.493Z,48.47
2023-04-08T08:41:52.839Z,48.50
2023-04-08T08:43:54.148Z,48.38
2023-04-08T08:45:55.476Z,48.23
2023-04-08T08:48:02.967Z,48.71
2023-04-08T08:50:05.168Z,48.57
2023-04-08T08:52:06.968Z,48.94
2023-04-08T08:54:08.559Z,49.11
2023-04-08T08:58:14.263Z,49.68
2023-04-08T09:00:19.449Z,49.83
2023-04-08T09:02:20.873Z,50.04
2023-04-08T09:04:23.017Z,50.15
2023-04-08T09:06:24.450Z,50.01
2023-04-08T09:08:26.224Z,50.10
2023-04-08T09:10:27.560Z,50.28
2023-04-08T09:12:29.697Z,50.17
2023-04-08T09:14:30.983Z,50.32
2023-04-08T09:16:41.474Z,50.24
2023-04-08T09:18:44.717Z,50.31
2023-04-08T09:20:46.101Z,50.36
2023-04-08T09:22:47.686Z,50.54
2023-04-08T09:24:48.999Z,50.45
2023-04-08T09:26:50.654Z,50.51
2023-04-08T09:28:51.987Z,50.42
2023-04-08T09:30:53.284Z,50.65
2023-04-08T09:32:54.711Z,50.43
2023-04-08T09:34:56.617Z,50.55
2023-04-08T09:36:57.922Z,50.63
2023-04-08T09:38:59.355Z,50.35
2023-04-08T09:41:00.703Z,50.33
2023-04-08T09:43:02.182Z,50.68
2023-04-08T09:45:03.985Z,50.50
2023-04-08T09:47:05.778Z,50.38
2023-04-08T09:49:09.930Z,50.53
2023-04-08T09:51:11.223Z,50.74
2023-04-08T09:53:12.555Z,50.42
2023-04-08T09:55:14.460Z,50.52
2023-04-08T09:57:16.343Z,50.53
2023-04-08T09:59:17.693Z,50.85
2023-04-08T10:01:19.064Z,50.82
2023-04-08T10:03:20.463Z,50.97
2023-04-08T10:05:22.127Z,50.97
2023-04-08T10:07:23.494Z,50.92
2023-04-08T10:09:24.797Z,50.42
2023-04-08T10:11:26.260Z,50.89
2023-04-08T10:13:28.437Z,51.00
2023-04-08T10:15:29.793Z,51.14
2023-04-08T10:17:36.688Z,51.61
2023-04-08T10:19:41.476Z,51.04
2023-04-08T10:21:50.189Z,51.18
2023-04-08T10:23:54.504Z,50.99
2023-04-08T10:25:56.111Z,51.19
2023-04-08T10:27:57.495Z,51.23
2023-04-08T10:30:01.749Z,51.36
2023-04-08T10:32:03.241Z,51.06
2023-04-08T10:34:04.648Z,51.09
2023-04-08T10:36:05.980Z,51.25
2023-04-08T10:38:07.301Z,51.09
2023-04-08T10:40:08.588Z,51.05
2023-04-08T10:42:09.944Z,51.26
2023-04-08T10:44:11.244Z,51.15
2023-04-08T10:46:12.735Z,50.93
2023-04-08T10:48:14.092Z,51.07
2023-04-08T10:50:15.534Z,51.17
2023-04-08T10:52:16.947Z,50.97
2023-04-08T10:54:18.278Z,51.23
2023-04-08T10:56:19.653Z,51.15
2023-04-08T10:58:21.054Z,51.25
2023-04-08T11:00:22.340Z,51.15
2023-04-08T11:02:23.775Z,51.35
2023-04-08T11:04:25.324Z,51.15
2023-04-08T11:06:27.825Z,51.35
2023-04-08T11:08:29.431Z,51.41
2023-04-08T11:10:31.119Z,51.24
2023-04-08T11:12:32.595Z,51.22
2023-04-08T11:14:33.886Z,51.28
2023-04-08T11:16:35.279Z,51.31
2023-04-08T11:18:36.639Z,51.16
2023-04-08T11:20:38.350Z,51.10
2023-04-08T11:22:39.658Z,51.09
2023-04-08T11:24:40.993Z,51.21
2023-04-08T11:26:51.873Z,51.03
2023-04-08T11:28:53.211Z,51.25
2023-04-08T11:30:54.592Z,51.09
2023-04-08T11:32:56.948Z,51.15
2023-04-08T11:34:58.651Z,51.13
2023-04-08T11:36:59.954Z,51.18
2023-04-08T11:39:01.302Z,50.58
2023-04-08T11:41:02.595Z,51.04
2023-04-08T11:43:04.008Z,51.00
2023-04-08T11:45:05.318Z,51.04
2023-04-08T11:47:07.286Z,51.13
2023-04-08T11:49:08.703Z,51.09
2023-04-08T11:51:10.318Z,51.08
2023-04-08T11:53:11.635Z,51.04
2023-04-08T11:55:13.052Z,51.08
2023-04-08T11:57:15.500Z,50.91
2023-04-08T11:59:16.793Z,51.08
2023-04-08T12:01:18.113Z,51.14
2023-04-08T12:03:19.533Z,50.78
2023-04-08T12:05:21.445Z,51.18
2023-04-08T12:07:22.746Z,50.89
2023-04-08T12:09:24.105Z,51.06
2023-04-08T12:11:26.011Z,51.22
2023-04-08T12:13:27.785Z,51.27
2023-04-08T12:15:29.079Z,51.29
2023-04-08T12:17:30.566Z,50.83
2023-04-08T12:19:37.800Z,51.13
2023-04-08T12:21:40.059Z,51.17
2023-04-08T12:23:41.558Z,51.27
2023-04-08T12:25:43.108Z,51.18
2023-04-08T12:27:44.416Z,51.38
2023-04-08T12:29:46.265Z,51.21
2023-04-08T12:31:47.633Z,51.16
2023-04-08T12:33:49.153Z,51.41
2023-04-08T12:35:50.656Z,51.26
2023-04-08T12:37:51.964Z,51.34
2023-04-08T12:39:53.263Z,51.33
2023-04-08T12:41:57.585Z,51.36
2023-04-08T12:43:58.891Z,51.25
2023-04-08T12:46:00.226Z,51.43
2023-04-08T12:48:02.217Z,51.34
2023-04-08T12:50:03.540Z,51.19
2023-04-08T12:52:05.395Z,51.13
2023-04-08T12:54:06.807Z,51.30
2023-04-08T12:56:08.129Z,51.33
2023-04-08T12:58:09.459Z,51.26
2023-04-08T13:00:11.348Z,51.25
2023-04-08T13:02:12.706Z,51.28
2023-04-08T13:04:14.139Z,51.06
2023-04-08T13:06:15.680Z,51.29
2023-04-08T13:08:17.647Z,51.27
2023-04-08T13:10:19.011Z,51.08
2023-04-08T13:12:20.310Z,51.15
2023-04-08T13:14:21.911Z,51.20
2023-04-08T13:16:26.019Z,51.13
2023-04-08T13:18:27.379Z,51.31
2023-04-08T13:20:28.741Z,51.27
2023-04-08T13:22:30.039Z,51.10
2023-04-08T13:24:31.362Z,51.20
2023-04-08T13:26:32.663Z,51.21
2023-04-08T13:28:38.728Z,51.10
2023-04-08T13:30:47.878Z,51.14
2023-04-08T13:32:49.284Z,51.25
2023-04-08T13:34:50.599Z,51.13
2023-04-08T13:36:51.929Z,51.28
2023-04-08T13:38:53.713Z,51.29
2023-04-08T13:40:55.816Z,51.15
2023-04-08T13:42:57.270Z,51.18
2023-04-08T13:44:58.595Z,51.19
2023-04-08T13:47:00.078Z,51.15
2023-04-08T13:49:08.152Z,51.21
2023-04-08T13:51:09.443Z,51.22
2023-04-08T13:53:10.871Z,51.02
2023-04-08T13:55:14.882Z,51.17
2023-04-08T13:57:18.977Z,51.23
2023-04-08T13:59:20.340Z,51.39
2023-04-08T14:01:21.710Z,51.35
2023-04-08T14:03:23.149Z,51.30
2023-04-08T14:05:24.488Z,51.30
2023-04-08T14:07:25.792Z,51.50
2023-04-08T14:09:27.138Z,51.24
2023-04-08T14:11:28.480Z,51.39
2023-04-08T14:13:29.780Z,51.43
2023-04-08T14:15:31.076Z,51.27
2023-04-08T14:17:33.103Z,51.14
2023-04-08T14:19:34.484Z,51.16
2023-04-08T14:21:37.877Z,51.37
2023-04-08T14:23:39.292Z,50.85
2023-04-08T14:25:40.947Z,51.17
2023-04-08T14:27:56.756Z,51.28
2023-04-08T14:29:59.641Z,50.84
2023-04-08T14:32:01.044Z,51.07
2023-04-08T14:34:02.399Z,51.08
2023-04-08T14:36:03.750Z,50.95
2023-04-08T14:38:05.051Z,51.18
2023-04-08T14:40:06.386Z,51.06
2023-04-08T14:42:07.732Z,51.11
2023-04-08T14:44:09.043Z,51.08
2023-04-08T14:46:10.533Z,50.94
2023-04-08T14:48:11.911Z,50.87
2023-04-08T14:50:13.262Z,51.00
2023-04-08T14:52:14.847Z,50.94
2023-04-08T14:54:16.867Z,51.04
2023-04-08T14:56:18.156Z,51.25
2023-04-08T14:58:20.113Z,51.07
2023-04-08T15:00:24.417Z,51.02
2023-04-08T15:02:25.963Z,51.40
2023-04-08T15:04:27.410Z,51.00
2023-04-08T15:06:32.265Z,51.21
2023-04-08T15:08:35.115Z,51.00
2023-04-08T15:10:36.461Z,51.07
2023-04-08T15:12:37.863Z,51.17
2023-04-08T15:14:39.210Z,51.11
2023-04-08T15:16:40.812Z,51.13
2023-04-08T15:18:42.366Z,51.16
2023-04-08T15:20:43.688Z,51.13
2023-04-08T15:22:45.427Z,51.21
2023-04-08T15:24:48.048Z,51.04
2023-04-08T15:26:49.421Z,51.23
2023-04-08T15:28:52.310Z,51.34
2023-04-08T15:30:53.870Z,51.01
2023-04-08T15:32:57.376Z,50.83
2023-04-08T15:34:58.971Z,51.08
2023-04-08T15:37:02.230Z,51.13
2023-04-08T15:39:03.665Z,51.01
2023-04-08T15:41:04.996Z,51.14
2023-04-08T15:43:06.761Z,51.05
2023-04-08T15:45:08.098Z,50.97
2023-04-08T15:47:09.559Z,51.29
2023-04-08T15:49:11.125Z,50.98
2023-04-08T15:51:13.640Z,50.96
2023-04-08T15:53:14.951Z,51.03
2023-04-08T15:55:19.162Z,50.83
2023-04-08T15:57:26.532Z,51.03
2023-04-08T15:59:28.115Z,51.34
2023-04-08T16:01:29.519Z,51.20
2023-04-08T16:03:31.848Z,51.15
2023-04-08T16:05:35.890Z,50.96
2023-04-08T16:07:37.497Z,51.17
2023-04-08T16:09:38.836Z,51.20
2023-04-08T16:11:40.181Z,51.07
2023-04-08T16:13:42.582Z,51.38
2023-04-08T16:15:44.242Z,51.64
2023-04-08T16:17:45.729Z,51.27
2023-04-08T16:19:47.257Z,51.31
2023-04-08T16:21:48.663Z,51.24
2023-04-08T16:23:50.461Z,51.21
2023-04-08T16:25:52.106Z,51.55
2023-04-08T16:27:56.437Z,51.20
2023-04-08T16:29:57.856Z,51.51
2023-04-08T16:32:02.366Z,51.15
2023-04-08T16:34:04.983Z,51.19
2023-04-08T16:36:06.440Z,51.03
2023-04-08T16:38:07.872Z,51.28
2023-04-08T16:40:09.464Z,51.30
2023-04-08T16:42:10.975Z,51.00
2023-04-08T16:44:12.332Z,51.17
2023-04-08T16:46:13.661Z,51.26
2023-04-08T16:48:17.704Z,50.92
2023-04-08T16:50:19.036Z,51.00
2023-04-08T16:52:20.811Z,50.82
2023-04-08T16:54:22.372Z,51.15
2023-04-08T16:56:23.739Z,51.02
2023-04-08T16:58:25.071Z,51.05
2023-04-08T17:00:26.460Z,51.17
2023-04-08T17:02:27.895Z,50.99
2023-04-08T17:04:29.273Z,50.96
2023-04-08T17:06:31.325Z,50.96
2023-04-08T17:08:33.459Z,51.03
2023-04-08T17:10:35.607Z,51.33
2023-04-08T17:12:36.967Z,50.68
2023-04-08T17:14:38.526Z,50.70
2023-04-08T17:16:39.826Z,51.05
2023-04-08T17:18:41.195Z,50.87
2023-04-08T17:20:44.329Z,50.85
2023-04-08T17:22:45.912Z,50.94
2023-04-08T17:24:48.179Z,50.95
2023-04-08T17:26:49.676Z,51.00
2023-04-08T17:28:50.999Z,51.06
2023-04-08T17:30:52.359Z,50.99
2023-04-08T17:32:53.717Z,51.14
2023-04-08T17:34:55.570Z,50.91
2023-04-08T17:36:57.315Z,50.96
2023-04-08T17:38:58.647Z,50.66
2023-04-08T17:40:59.965Z,50.74
2023-04-08T17:43:02.153Z,50.86
2023-04-08T17:45:03.522Z,50.96
2023-04-08T17:47:07.696Z,50.91
2023-04-08T17:49:12.718Z,50.94
2023-04-08T17:51:14.061Z,51.03
2023-04-08T17:53:15.463Z,50.68
2023-04-08T17:55:22.689Z,50.70
2023-04-08T17:57:24.011Z,50.71
2023-04-08T17:59:25.606Z,50.75
2023-04-08T18:01:27.051Z,50.81
2023-04-08T18:03:28.457Z,50.76
2023-04-08T18:05:30.145Z,50.68
2023-04-08T18:07:31.606Z,50.81
2023-04-08T18:09:32.978Z,50.85
2023-04-08T18:11:34.267Z,50.95
2023-04-08T18:13:35.693Z,50.75
2023-04-08T18:15:37.088Z,50.72
2023-04-08T18:17:38.482Z,50.78
2023-04-08T18:19:39.819Z,50.86
2023-04-08T18:21:41.178Z,50.61
2023-04-08T18:23:42.522Z,50.79
2023-04-08T18:25:44.655Z,50.48
2023-04-08T18:27:46.112Z,50.85
2023-04-08T18:29:47.503Z,50.76
2023-04-08T18:31:48.860Z,51.10
2023-04-08T18:33:50.341Z,50.97
2023-04-08T18:35:53.028Z,50.71
2023-04-08T18:37:54.364Z,50.71
2023-04-08T18:40:02.470Z,50.63
2023-04-08T18:42:04.118Z,50.89
2023-04-08T18:44:05.518Z,50.53
2023-04-08T18:46:07.090Z,50.60
2023-04-08T18:48:08.546Z,50.74
2023-04-08T18:50:09.866Z,50.72
2023-04-08T18:52:11.284Z,50.83
2023-04-08T18:54:12.614Z,50.38
2023-04-08T18:56:13.912Z,50.61
2023-04-08T18:58:18.337Z,50.92
2023-04-08T19:00:22.452Z,50.56
2023-04-08T19:02:23.897Z,50.65
2023-04-08T19:04:25.439Z,50.29
2023-04-08T19:06:29.283Z,50.67
2023-04-08T19:08:33.711Z,50.67
2023-04-08T19:10:36.291Z,50.57
2023-04-08T19:12:37.614Z,50.50
2023-04-08T19:14:39.574Z,50.41
2023-04-08T19:16:43.751Z,50.35
2023-04-08T19:18:45.046Z,50.50
2023-04-08T19:20:46.923Z,50.49
2023-04-08T19:22:49.073Z,50.20
2023-04-08T19:24:54.952Z,50.57
2023-04-08T19:26:56.559Z,50.40
2023-04-08T19:28:57.858Z,50.51
2023-04-08T19:31:02.199Z,50.57
2023-04-08T19:33:03.579Z,50.32
2023-04-08T19:35:04.942Z,50.13
2023-04-08T19:37:07.231Z,50.34
2023-04-08T19:39:08.724Z,50.39
2023-04-08T19:41:10.316Z,50.49
2023-04-08T19:43:11.616Z,50.38
2023-04-08T19:45:12.918Z,50.42
2023-04-08T19:47:14.722Z,50.56
2023-04-08T19:49:16.248Z,50.53
2023-04-08T19:51:20.289Z,50.50
2023-04-08T19:53:21.710Z,50.48
2023-04-08T19:55:23.172Z,50.33
2023-04-08T19:57:28.559Z,50.61
2023-04-08T19:59:29.873Z,50.36
2023-04-08T20:01:34.460Z,50.31
2023-04-08T20:03:36.006Z,50.31
2023-04-08T20:05:40.119Z,50.34
2023-04-08T20:07:41.479Z,50.20
2023-04-08T20:09:42.799Z,50.15
2023-04-08T20:11:44.220Z,50.45
2023-04-08T20:13:47.132Z,50.40
2023-04-08T20:15:48.470Z,50.35
2023-04-08T20:17:49.875Z,50.39
2023-04-08T20:19:51.367Z,50.73
2023-04-08T20:21:53.244Z,50.36
2023-04-08T20:23:54.608Z,50.49
2023-04-08T20:25:56.683Z,50.22
2023-04-08T20:27:58.139Z,50.45
2023-04-08T20:29:59.853Z,50.38
2023-04-08T20:32:01.202Z,50.30
2023-04-08T20:34:03.463Z,50.37
2023-04-08T20:36:04.833Z,50.42
2023-04-08T20:38:06.157Z,50.39
2023-04-08T20:40:07.485Z,50.07
2023-04-08T20:42:09.598Z,50.38
2023-04-08T20:44:11.076Z,50.32
2023-04-08T20:46:12.410Z,50.37
2023-04-08T20:48:13.826Z,50.26
2023-04-08T20:50:15.320Z,50.52
2023-04-08T20:52:16.792Z,50.11
2023-04-08T20:54:18.566Z,50.33
2023-04-08T20:56:22.996Z,50.39
2023-04-08T20:58:24.280Z,50.28
2023-04-08T21:00:25.604Z,50.04
2023-04-08T21:02:27.055Z,50.30
2023-04-08T21:04:28.489Z,50.21
2023-04-08T21:06:29.884Z,50.28
2023-04-08T21:08:31.214Z,50.25
2023-04-08T21:10:32.551Z,50.22
2023-04-08T21:12:33.874Z,50.21
2023-04-08T21:14:35.165Z,50.30
2023-04-08T21:16:36.562Z,50.19
2023-04-08T21:18:37.943Z,50.26
2023-04-08T21:20:39.320Z,50.11
2023-04-08T21:22:40.616Z,50.13
2023-04-08T21:24:41.912Z,50.00
2023-04-08T21:26:43.295Z,50.05
2023-04-08T21:28:44.643Z,49.97
2023-04-08T21:30:46.127Z,50.07
2023-04-08T21:32:47.742Z,50.04
2023-04-08T21:34:49.120Z,50.26
2023-04-08T21:36:50.406Z,50.08
2023-04-08T21:38:51.825Z,50.03
2023-04-08T21:40:56.432Z,50.28
2023-04-08T21:42:57.714Z,49.95
2023-04-08T21:44:59.013Z,50.05
2023-04-08T21:47:03.367Z,49.93
2023-04-08T21:49:04.667Z,50.04
2023-04-08T21:51:06.963Z,49.94
2023-04-08T21:53:08.272Z,49.97
2023-04-08T21:55:09.611Z,50.08
2023-04-08T21:57:11.155Z,49.85
2023-04-08T21:59:12.450Z,49.99
2023-04-08T22:01:13.837Z,50.01
2023-04-08T22:03:15.491Z,50.13
2023-04-08T22:05:16.893Z,49.76
2023-04-08T22:07:18.215Z,49.83
2023-04-08T22:09:19.651Z,50.00
2023-04-08T22:11:20.939Z,49.69
2023-04-08T22:13:22.249Z,49.79
2023-04-08T22:15:23.581Z,49.74
2023-04-08T22:17:25.126Z,49.70
2023-04-08T22:19:26.475Z,49.87
2023-04-08T22:21:27.901Z,49.94
2023-04-08T22:23:29.259Z,49.81
2023-04-08T22:25:30.608Z,49.99
2023-04-08T22:27:31.940Z,49.74
2023-04-08T22:29:33.944Z,50.02
2023-04-08T22:31:35.503Z,49.89
2023-04-08T22:33:36.883Z,49.68
2023-04-08T22:35:38.227Z,50.02
2023-04-08T22:37:40.375Z,49.83
2023-04-08T22:39:41.707Z,49.89
2023-04-08T22:41:43.066Z,50.23
2023-04-08T22:43:44.383Z,49.79
2023-04-08T22:45:45.749Z,49.81
2023-04-08T22:47:47.118Z,50.00
2023-04-08T22:49:48.447Z,49.81
2023-04-08T22:51:49.771Z,49.96
2023-04-08T22:53:51.085Z,49.94
2023-04-08T22:55:52.383Z,50.06
2023-04-08T22:57:53.686Z,50.20
2023-04-08T22:59:54.987Z,49.89
2023-04-08T23:01:56.423Z,49.71
2023-04-08T23:03:57.929Z,50.21
2023-04-08T23:05:59.283Z,50.26
2023-04-08T23:08:00.892Z,49.83
2023-04-08T23:10:02.230Z,49.68
2023-04-08T23:12:03.590Z,49.83
2023-04-08T23:14:04.943Z,49.76
2023-04-08T23:16:06.352Z,49.97
2023-04-08T23:18:07.804Z,49.88
2023-04-08T23:20:09.173Z,49.98
2023-04-08T23:22:10.927Z,49.78
2023-04-08T23:24:12.224Z,49.86
2023-04-08T23:26:13.615Z,49.73
2023-04-08T23:28:14.911Z,49.70
2023-04-08T23:30:16.321Z,49.75
2023-04-08T23:32:17.780Z,49.85
2023-04-08T23:34:19.196Z,49.69
2023-04-08T23:36:20.657Z,49.75
2023-04-08T23:38:21.959Z,49.75
2023-04-08T23:40:23.281Z,49.88
2023-04-08T23:42:27.292Z,49.73
2023-04-08T23:44:28.771Z,49.69
2023-04-08T23:46:35.878Z,49.80
2023-04-08T23:48:37.295Z,49.53
2023-04-08T23:50:38.608Z,49.59
2023-04-08T23:52:39.924Z,49.85
2023-04-08T23:54:41.226Z,49.66
2023-04-08T23:56:42.556Z,49.67
2023-04-08T23:58:43.863Z,49.72
